createdAt,value
2019-04-04T00:01:28.198Z,999.90
2019-04-04T00:06:32.170Z,999.90
2019-04-04T00:11:36.872Z,999.90
2019-04-04T00:16:41.356Z,999.90
2019-04-04T00:21:45.072Z,999.90
2019-04-04T00:26:49.035Z,999.90
2019-04-04T00:31:52.738Z,999.90
2019-04-04T00:36:56.698Z,999.90
2019-04-04T00:42:00.386Z,999.90
2019-04-04T00:47:04.106Z,999.90
2019-04-04T00:52:09.922Z,999.90
2019-04-04T00:57:13.231Z,999.90
2019-04-04T01:02:16.943Z,999.90
2019-04-04T01:07:20.670Z,999.90
2019-04-04T01:12:24.394Z,999.90
2019-04-04T01:17:28.371Z,999.90
2019-04-04T01:22:32.355Z,999.90
2019-04-04T01:27:36.928Z,955.13
2019-04-04T01:32:42.339Z,914.33
2019-04-04T01:37:46.081Z,996.50
2019-04-04T01:42:49.813Z,658.40
2019-04-04T01:47:53.525Z,863.53
2019-04-04T01:52:59.284Z,999.90
2019-04-04T01:58:03.011Z,844.13
2019-04-04T02:03:06.745Z,860.93
2019-04-04T02:08:10.890Z,836.57
2019-04-04T02:13:14.622Z,918.97
2019-04-04T02:18:18.373Z,999.90
2019-04-04T02:23:22.363Z,999.90
2019-04-04T02:28:26.100Z,822.50
2019-04-04T02:33:32.438Z,766.30
2019-04-04T02:38:35.307Z,848.37
2019-04-04T02:43:39.020Z,782.50
2019-04-04T02:48:42.768Z,467.07
2019-04-04T02:53:46.760Z,788.27
2019-04-04T02:58:51.100Z,858.57
2019-04-04T03:03:54.964Z,511.77
2019-04-04T03:08:58.757Z,708.80
2019-04-04T03:14:03.726Z,664.50
2019-04-04T03:19:10.992Z,769.13
2019-04-04T03:24:13.472Z,871.23
2019-04-04T03:29:17.407Z,897.13
2019-04-04T03:34:21.134Z,884.30
2019-04-04T03:39:24.931Z,838.40
2019-04-04T03:44:28.721Z,947.93
2019-04-04T03:49:32.448Z,972.43
2019-04-04T03:54:36.427Z,831.10
2019-04-04T03:59:40.204Z,952.23
2019-04-04T04:04:43.922Z,964.13
2019-04-04T04:09:47.627Z,933.13
2019-04-04T04:14:54.881Z,999.03
2019-04-04T04:19:56.890Z,991.40
2019-04-04T04:25:03.496Z,998.90
2019-04-04T04:30:07.596Z,972.87
2019-04-04T04:35:12.351Z,999.90
2019-04-04T04:40:16.071Z,977.30
2019-04-04T04:45:20.098Z,995.20
2019-04-04T04:50:23.916Z,969.23
2019-04-04T04:55:28.205Z,952.87
2019-04-04T05:00:32.438Z,999.90
2019-04-04T05:05:36.209Z,893.37
2019-04-04T05:10:39.959Z,910.10
2019-04-04T05:15:43.982Z,973.73
2019-04-04T05:20:48.044Z,796.97
2019-04-04T05:25:54.471Z,746.23
2019-04-04T05:30:58.662Z,567.70
2019-04-04T05:36:04.805Z,850.33
2019-04-04T05:41:11.325Z,999.90
2019-04-04T05:46:16.791Z,999.90
2019-04-04T05:51:20.752Z,999.90
2019-04-04T05:56:24.693Z,999.90
2019-04-04T06:01:28.585Z,878.67
2019-04-04T06:06:33.370Z,999.90
2019-04-04T06:11:38.260Z,999.90
2019-04-04T06:16:42.234Z,999.90
2019-04-04T06:21:46.042Z,998.33
2019-04-04T06:26:50.078Z,999.90
2019-04-04T06:32:00.092Z,999.90
2019-04-04T06:37:04.199Z,999.90
2019-04-04T06:42:11.392Z,915.00
2019-04-04T06:47:19.606Z,999.90
2019-04-04T06:52:37.481Z,965.63
2019-04-04T06:57:42.615Z,803.17
2019-04-04T07:02:56.063Z,922.57
2019-04-04T07:08:00.055Z,783.13
2019-04-04T07:13:20.455Z,839.40
2019-04-04T07:18:12.985Z,700.17
2019-04-04T07:23:20.689Z,999.90
2019-04-04T07:28:25.719Z,961.80
2019-04-04T07:33:30.330Z,983.73
2019-04-04T07:38:38.610Z,789.00
2019-04-04T07:43:43.778Z,449.47
2019-04-04T07:48:52.163Z,757.73
2019-04-04T07:53:58.619Z,462.87
2019-04-04T07:59:04.451Z,96.50
2019-04-04T08:04:10.381Z,145.20
2019-04-04T08:09:32.903Z,206.50
2019-04-04T08:14:43.844Z,180.53
2019-04-04T08:19:59.561Z,216.57
2019-04-04T08:24:57.794Z,999.90
2019-04-04T08:30:02.812Z,507.23
2019-04-04T08:35:09.034Z,309.73
2019-04-04T08:40:16.164Z,999.90
2019-04-04T08:45:28.761Z,94.40
2019-04-04T08:50:44.140Z,314.67
2019-04-04T08:55:59.919Z,188.67
2019-04-04T09:01:05.172Z,128.00
2019-04-04T09:06:13.390Z,162.57
2019-04-04T09:11:19.002Z,139.87
2019-04-04T09:16:23.815Z,157.40
2019-04-04T09:21:27.951Z,194.33
2019-04-04T09:26:31.728Z,125.33
2019-04-04T09:31:35.479Z,68.37
2019-04-04T09:36:39.658Z,52.80
2019-04-04T09:41:44.168Z,60.37
2019-04-04T09:46:48.776Z,110.73
2019-04-04T09:51:53.205Z,97.27
2019-04-04T09:57:00.579Z,61.17
2019-04-04T10:02:06.248Z,67.23
2019-04-04T10:07:11.465Z,180.73
2019-04-04T10:12:18.281Z,118.83
2019-04-04T10:17:35.123Z,161.97
2019-04-04T10:22:42.678Z,80.80
2019-04-04T10:27:50.821Z,107.93
2019-04-04T10:32:55.549Z,118.87
2019-04-04T10:38:02.783Z,240.07
2019-04-04T10:43:09.551Z,56.70
2019-04-04T10:48:14.669Z,69.33
2019-04-04T10:53:20.932Z,65.00
2019-04-04T10:58:24.662Z,58.97
2019-04-04T11:03:29.301Z,196.33
2019-04-04T11:08:33.863Z,999.90
2019-04-04T11:13:38.628Z,102.40
2019-04-04T11:18:43.065Z,63.07
2019-04-04T11:23:48.051Z,97.20
2019-04-04T11:28:52.486Z,241.57
2019-04-04T11:33:57.328Z,91.03
2019-04-04T11:39:01.489Z,74.93
2019-04-04T11:44:06.409Z,56.60
2019-04-04T11:49:11.857Z,146.50
2019-04-04T11:54:17.117Z,66.33
2019-04-04T11:59:21.942Z,60.20
2019-04-04T12:04:26.915Z,71.50
2019-04-04T12:09:36.209Z,58.03
2019-04-04T12:14:52.790Z,47.67
2019-04-04T12:20:00.742Z,65.27
2019-04-04T12:25:06.052Z,99.60
2019-04-04T12:30:11.227Z,79.83
2019-04-04T12:35:15.921Z,307.57
2019-04-04T12:40:21.192Z,111.33
2019-04-04T12:45:26.523Z,406.90
2019-04-04T12:50:31.123Z,80.80
2019-04-04T12:55:35.919Z,272.87
2019-04-04T13:00:40.244Z,858.27
2019-04-04T13:05:44.273Z,189.37
2019-04-04T13:10:49.208Z,322.20
2019-04-04T13:15:54.577Z,105.13
2019-04-04T13:20:59.652Z,102.10
2019-04-04T13:26:04.453Z,94.57
2019-04-04T13:31:09.531Z,102.00
2019-04-04T13:36:13.874Z,87.63
2019-04-04T13:41:22.054Z,96.83
2019-04-04T13:46:28.043Z,104.57
2019-04-04T13:51:31.142Z,74.20
2019-04-04T13:56:35.558Z,103.33
2019-04-04T14:01:42.717Z,156.77
2019-04-04T14:06:47.262Z,89.63
2019-04-04T14:11:51.996Z,74.83
2019-04-04T14:16:57.330Z,116.50
2019-04-04T14:22:02.089Z,121.07
2019-04-04T14:27:09.022Z,180.93
2019-04-04T14:32:14.545Z,92.47
2019-04-04T14:37:18.281Z,92.13
2019-04-04T14:42:22.307Z,117.03
2019-04-04T14:47:26.731Z,68.10
2019-04-04T14:52:30.828Z,75.73
2019-04-04T14:57:35.918Z,53.70
2019-04-04T15:02:40.877Z,86.83
2019-04-04T15:07:45.225Z,78.87
2019-04-04T15:12:50.611Z,86.87
2019-04-04T15:17:55.230Z,47.03
2019-04-04T15:23:01.032Z,138.53
2019-04-04T15:28:05.926Z,84.70
2019-04-04T15:33:11.742Z,101.10
2019-04-04T15:38:17.611Z,66.20
2019-04-04T15:43:22.858Z,116.57
2019-04-04T15:48:28.084Z,217.90
2019-04-04T15:53:33.025Z,72.97
2019-04-04T15:58:38.251Z,55.47
2019-04-04T16:03:43.693Z,66.87
2019-04-04T16:08:48.417Z,92.10
2019-04-04T16:13:53.215Z,156.47
2019-04-04T16:18:58.442Z,54.00
2019-04-04T16:24:03.909Z,49.97
2019-04-04T16:29:08.423Z,57.67
2019-04-04T16:34:13.007Z,45.57
2019-04-04T16:39:17.722Z,45.30
2019-04-04T16:44:22.590Z,55.37
2019-04-04T16:49:28.220Z,92.57
2019-04-04T16:54:32.878Z,83.10
2019-04-04T16:59:38.067Z,222.47
2019-04-04T17:04:43.655Z,218.80
2019-04-04T17:09:49.393Z,274.77
2019-04-04T17:14:54.670Z,809.83
2019-04-04T17:19:58.501Z,861.03
2019-04-04T17:25:03.067Z,902.87
2019-04-04T17:30:09.295Z,933.70
2019-04-04T17:35:14.793Z,947.20
2019-04-04T17:40:21.013Z,929.43
2019-04-04T17:45:26.920Z,885.07
2019-04-04T17:50:32.330Z,910.57
2019-04-04T17:55:37.342Z,999.90
2019-04-04T18:00:42.517Z,999.90
2019-04-04T18:05:47.432Z,999.90
2019-04-04T18:10:52.601Z,999.90
2019-04-04T18:15:57.727Z,999.90
2019-04-04T18:21:01.842Z,999.90
2019-04-04T18:26:06.246Z,999.90
2019-04-04T18:31:11.818Z,999.90
2019-04-04T18:36:16.108Z,999.90
2019-04-04T18:41:20.575Z,999.90
2019-04-04T18:46:26.209Z,999.90
2019-04-04T18:51:31.218Z,999.90
2019-04-04T18:56:37.267Z,999.90
2019-04-04T19:01:42.471Z,999.90
2019-04-04T19:06:48.030Z,999.90
2019-04-04T19:11:53.355Z,999.90
2019-04-04T19:16:58.442Z,999.90
2019-04-04T19:22:03.570Z,999.90
2019-04-04T19:27:07.633Z,999.90
2019-04-04T19:32:12.035Z,999.90
2019-04-04T19:37:16.853Z,999.90
2019-04-04T19:42:22.188Z,999.90
2019-04-04T19:47:26.850Z,999.90
2019-04-04T19:52:31.619Z,999.90
2019-04-04T19:57:36.086Z,999.90
2019-04-04T20:02:43.778Z,999.90
2019-04-04T20:07:47.431Z,999.90
2019-04-04T20:12:51.546Z,999.90
2019-04-04T20:17:56.986Z,999.90
2019-04-04T20:23:02.126Z,999.90
2019-04-04T20:28:06.117Z,999.90
2019-04-04T20:33:13.554Z,999.90
2019-04-04T20:38:17.736Z,999.90
2019-04-04T20:43:21.752Z,999.90
2019-04-04T20:48:27.951Z,999.90
2019-04-04T20:53:32.951Z,999.90
2019-04-04T20:58:38.199Z,999.90
2019-04-04T21:03:42.574Z,999.90
2019-04-04T21:08:47.517Z,999.90
2019-04-04T21:13:56.451Z,999.90
2019-04-04T21:18:57.794Z,999.90
2019-04-04T21:24:02.569Z,999.90
2019-04-04T21:29:08.254Z,999.90
2019-04-04T21:34:12.575Z,999.90
2019-04-04T21:39:16.686Z,999.90
2019-04-04T21:44:22.417Z,999.90
2019-04-04T21:49:28.008Z,999.90
2019-04-04T21:54:33.979Z,999.90
2019-04-04T21:59:39.330Z,994.40
2019-04-04T22:04:43.143Z,999.90
2019-04-04T22:09:47.674Z,999.90
2019-04-04T22:14:52.158Z,999.90
2019-04-04T22:19:57.479Z,999.90
2019-04-04T22:25:02.431Z,999.90
2019-04-04T22:30:09.021Z,999.90
2019-04-04T22:35:14.597Z,999.90
2019-04-04T22:40:19.288Z,892.50
2019-04-04T22:45:24.643Z,992.07
2019-04-04T22:50:29.936Z,999.90
2019-04-04T22:55:35.591Z,999.90
2019-04-04T23:00:39.458Z,999.90
2019-04-04T23:05:44.244Z,580.67
2019-04-04T23:10:49.167Z,499.47
2019-04-04T23:15:53.229Z,876.80
2019-04-04T23:20:58.584Z,876.77
2019-04-04T23:26:03.693Z,638.37
2019-04-04T23:31:08.797Z,622.83
2019-04-04T23:36:12.631Z,733.53
2019-04-04T23:41:19.710Z,772.60
2019-04-04T23:46:25.242Z,782.20
2019-04-04T23:51:30.859Z,999.90
2019-04-04T23:56:36.056Z,999.90
